Terminal Aerodrome Forecast
Issued by NWS

Current Version | Previous Version | Text Only | Print | Product List | Glossary Off
Versions: 1 2 3 4 5 6 7 8 9 10 11 12 13 14 15 16 17 18 19 20 21 22

000
FTUS41 KILN 240200 AAA
TAFLCK
TAF AMD
KLCK 240216Z 2402/2424 12008KT P6SM VCSH OVC015
      TEMPO 2402/2404 SCT015
     FM240700 14009KT 4SM BR OVC009
     FM241300 14012KT 5SM BR VCSH OVC013
     FM241700 17015G23KT 5SM -SHRA BR OVC012
     FM241800 23022G34KT P6SM VCSH BKN015
     FM242100 25025G40KT P6SM VCSH BKN020=

USA.gov is the U.S. government's official web portal to all federal, state and local government web resources and services.